Wilson Mersin — P3PA6 — position and weather

sailwx.info

Track history (hours):
 
Tides and Currents Weather Stations Pressure Air Temp Water Temp Dewpoint Dewpoint Depression Visibility Wind Speed Wind Dir Waves Ship Positions

Wilson Mersin

Last reported at 2017-Jan-17 12:33 UTC. Time now 2017-Jan-17 13:01 UTC.
Position N 51°53' E 004°16'.

Length 107 m; draft 6.7 m.

Type: Cargo ship. MMSI: 210072000.

Date/timePositionNaut miles runAvg speedWind from/ knotsBaromVisibWave heightAir tempDewpointWater temp
2017-Jan-17 12:33N 51°53' E 004°16'0 0.0
2017-Jan-17 11:33N 51°53' E 004°16'0 0.0
2017-Jan-17 10:33N 51°53' E 004°16'0 0.1
2017-Jan-17 09:34N 51°53' E 004°16'3 3.5
2017-Jan-17 08:33N 51°56' E 004°13'9 9.4
2017-Jan-17 07:33N 51°60' E 003°59'9 9.3
2017-Jan-17 06:33N 52°05' E 003°46'1110.5
2017-Jan-17 05:33N 52°15' E 003°46'1211.3
2017-Jan-17 04:28N 52°27' E 003°50'1312.3
2017-Jan-17 03:25N 52°40' E 003°54'7412.6
2017-Jan-16 21:32N 53°47' E 004°46'31412.1
2017-Jan-15 19:33N 57°48' E 010°45'1212.5
2017-Jan-15 18:33N 57°40' E 011°03'1312.6
2017-Jan-15 17:33N 57°31' E 011°21'1212.0
2017-Jan-15 16:33N 57°21' E 011°32'1212.1
2017-Jan-15 15:33N 57°09' E 011°39'6112.3
2017-Jan-15 10:33N 56°13' E 012°24'1312.7
2017-Jan-15 09:34N 56°04' E 012°39'1212.4
2017-Jan-15 08:33N 55°52' E 012°44'1212.3
2017-Jan-15 07:33N 55°39' E 012°42'1111.0
2017-Jan-15 06:33N 55°28' E 012°43'1010.3
2017-Jan-15 05:33N 55°18' E 012°42'1111.5
2017-Jan-15 04:33N 55°15' E 013°02'2411.9
2017-Jan-15 02:33N 55°15' E 013°44'1211.9
2017-Jan-15 01:33N 55°14' E 014°05'1010.5
2017-Jan-15 00:33N 55°18' E 014°22'1211.6
2017-Jan-14 23:33N 55°27' E 014°35'1211.6
2017-Jan-14 22:33N 55°31' E 014°54'1312.8
2017-Jan-14 21:32N 55°36' E 015°15'  
2017-Jan-11 16:25N 53°43' E 014°27'910.2
2017-Jan-11 15:33N 53°36' E 014°35'9 8.8
2017-Jan-11 14:33N 53°27' E 014°36'2 1.8
2017-Jan-11 13:33N 53°25' E 014°34'0 0.0
2017-Jan-11 12:33N 53°25' E 014°34'0 0.0
2017-Jan-11 11:33N 53°25' E 014°34'0 0.0
2017-Jan-11 10:33N 53°25' E 014°34'0 0.0
2017-Jan-11 09:33N 53°25' E 014°34'0 0.0
2017-Jan-11 08:33N 53°25' E 014°34'0 0.0
2017-Jan-11 07:33N 53°25' E 014°34'0 0.0
2017-Jan-11 06:33N 53°25' E 014°34'0 0.0
2017-Jan-11 05:33N 53°25' E 014°34'0 0.0
2017-Jan-11 04:33N 53°25' E 014°34'0 0.0
2017-Jan-11 03:33N 53°25' E 014°34'0 0.0
2017-Jan-11 02:33N 53°25' E 014°34'0 0.0
2017-Jan-11 01:33N 53°25' E 014°34'0 0.0
2017-Jan-11 00:33N 53°25' E 014°34'0 0.0
2017-Jan-10 23:33N 53°25' E 014°34'0 0.0
2017-Jan-10 22:33N 53°25' E 014°34'0 0.0
2017-Jan-10 21:33N 53°25' E 014°34'0 0.0
2017-Jan-10 20:33N 53°25' E 014°34'0 0.0
2017-Jan-10 19:33N 53°25' E 014°34'0 0.0
2017-Jan-10 18:33N 53°25' E 014°34'0 0.0
2017-Jan-10 17:33N 53°25' E 014°34'0 0.0
2017-Jan-10 16:33N 53°25' E 014°34'0 0.0
2017-Jan-10 15:33N 53°25' E 014°34'0 0.0
2017-Jan-10 14:33N 53°25' E 014°34'0 0.0
2017-Jan-10 13:33N 53°25' E 014°34'0 0.0
2017-Jan-10 12:33N 53°25' E 014°34'0 0.0
2017-Jan-10 11:33N 53°25' E 014°34'0 0.0
2017-Jan-10 10:33N 53°25' E 014°34'0 0.0
2017-Jan-10 09:33N 53°25' E 014°34'0 0.0
2017-Jan-10 08:30N 53°25' E 014°34'0 0.0
2017-Jan-10 07:33N 53°25' E 014°34'0 0.0
2017-Jan-10 06:33N 53°25' E 014°34'0 0.0
2017-Jan-10 05:33N 53°25' E 014°34'0 0.0
2017-Jan-10 04:33N 53°25' E 014°34'0 0.0
2017-Jan-10 03:33N 53°25' E 014°34'0 0.0
2017-Jan-10 02:33N 53°25' E 014°34'0 0.0
2017-Jan-10 01:33N 53°25' E 014°34'0 0.0
2017-Jan-10 00:33N 53°25' E 014°34'0 0.0
2017-Jan-09 23:33N 53°25' E 014°34'0 0.0
2017-Jan-09 22:27N 53°25' E 014°34'0 0.0
2017-Jan-09 21:33N 53°25' E 014°34'0 0.0
2017-Jan-09 20:33N 53°25' E 014°34'0 0.0
2017-Jan-09 19:30N 53°25' E 014°34'0 0.0
2017-Jan-09 18:33N 53°25' E 014°34'0 0.0
2017-Jan-09 17:33N 53°25' E 014°34'0 0.0
2017-Jan-09 16:33N 53°25' E 014°34'0 0.0
2017-Jan-09 15:33N 53°25' E 014°34'0 0.0
2017-Jan-09 14:33N 53°25' E 014°34'0 0.0
2017-Jan-09 13:33N 53°25' E 014°34'0 0.0
2017-Jan-09 12:33N 53°25' E 014°34'0 0.0
2017-Jan-09 11:33N 53°25' E 014°34'0 0.0
2017-Jan-09 10:33N 53°25' E 014°34'0 0.0
2017-Jan-09 09:33N 53°25' E 014°34'0 0.0
2017-Jan-09 08:33N 53°25' E 014°34'0 0.0
2017-Jan-09 07:33N 53°25' E 014°34'0 0.0
2017-Jan-09 06:33N 53°25' E 014°34'0 0.0
2017-Jan-09 05:33N 53°25' E 014°34'0 0.0
2017-Jan-09 04:33N 53°25' E 014°34'0 0.0
2017-Jan-09 03:33N 53°25' E 014°34'0 0.0
2017-Jan-09 02:33N 53°25' E 014°34'0 0.0
2017-Jan-09 01:33N 53°25' E 014°34'0 0.0
2017-Jan-09 00:33N 53°25' E 014°34'0 0.0
2017-Jan-08 23:33N 53°25' E 014°34'0 0.0
2017-Jan-08 22:33N 53°25' E 014°34'0 0.0
2017-Jan-08 21:33N 53°25' E 014°34'0 0.0
2017-Jan-08 20:33N 53°25' E 014°34'0 0.0
2017-Jan-08 19:33N 53°25' E 014°34'0 0.0
2017-Jan-08 18:33N 53°25' E 014°34'0 0.0
2017-Jan-08 17:30N 53°25' E 014°34'0 0.0
2017-Jan-08 16:33N 53°25' E 014°34'0 0.0
2017-Jan-08 15:33N 53°25' E 014°34'0 0.0
2017-Jan-08 14:33N 53°25' E 014°34'0 0.0
2017-Jan-08 13:33N 53°25' E 014°34'0 0.0
2017-Jan-08 12:33N 53°25' E 014°34'0 0.0
2017-Jan-08 11:33N 53°25' E 014°34'0 0.0
2017-Jan-08 10:33N 53°25' E 014°34'0 0.0
2017-Jan-08 09:33N 53°25' E 014°34'0 0.0
2017-Jan-08 08:33N 53°25' E 014°34'0 0.0
2017-Jan-08 07:33N 53°25' E 014°34'0 0.0
2017-Jan-08 06:33N 53°25' E 014°34'0 0.0
2017-Jan-08 05:33N 53°25' E 014°34'0 0.0
2017-Jan-08 04:33N 53°25' E 014°34'0 0.0
2017-Jan-08 03:33N 53°25' E 014°34'0 0.0
2017-Jan-08 02:33N 53°25' E 014°34'0 0.0
2017-Jan-08 01:33N 53°25' E 014°34'0 0.0
2017-Jan-08 00:33N 53°25' E 014°34'0 0.0
2017-Jan-07 23:33N 53°25' E 014°34'0 0.0
2017-Jan-07 22:33N 53°25' E 014°34'0 0.0
2017-Jan-07 21:33N 53°25' E 014°34'0 0.0
2017-Jan-07 20:33N 53°25' E 014°34'0 0.0
2017-Jan-07 19:33N 53°25' E 014°34'0 0.0
2017-Jan-07 18:33N 53°25' E 014°34'0 0.0
2017-Jan-07 17:33N 53°25' E 014°34'0 0.0
2017-Jan-07 16:33N 53°25' E 014°34'0 0.0
2017-Jan-07 15:30N 53°25' E 014°34'0 0.0
2017-Jan-07 14:33N 53°25' E 014°34'0 0.0
2017-Jan-07 13:33N 53°25' E 014°34'  
Track history (hours):
 
Tides and Currents Weather Stations Pressure Air Temp Water Temp Dewpoint Dewpoint Depression Visibility Wind Speed Wind Dir Waves Ship Positions

Wilson Mersin

Last reported at 2017-Jan-17 12:33 UTC. Time now 2017-Jan-17 13:01 UTC.
Position N 51°53' E 004°16'.

Length 107 m; draft 6.7 m.

Type: Cargo ship. MMSI: 210072000.

Date/timePositionNaut miles runAvg speedWind from/ knotsBaromVisibWave heightAir tempDewpointWater temp
2017-Jan-17 12:33N 51°53' E 004°16'0 0.0
2017-Jan-17 11:33N 51°53' E 004°16'0 0.0
2017-Jan-17 10:33N 51°53' E 004°16'0 0.1
2017-Jan-17 09:34N 51°53' E 004°16'3 3.5
2017-Jan-17 08:33N 51°56' E 004°13'9 9.4
2017-Jan-17 07:33N 51°60' E 003°59'9 9.3
2017-Jan-17 06:33N 52°05' E 003°46'1110.5
2017-Jan-17 05:33N 52°15' E 003°46'1211.3
2017-Jan-17 04:28N 52°27' E 003°50'1312.3
2017-Jan-17 03:25N 52°40' E 003°54'7412.6
2017-Jan-16 21:32N 53°47' E 004°46'31412.1
2017-Jan-15 19:33N 57°48' E 010°45'1212.5
2017-Jan-15 18:33N 57°40' E 011°03'1312.6
2017-Jan-15 17:33N 57°31' E 011°21'1212.0
2017-Jan-15 16:33N 57°21' E 011°32'1212.1
2017-Jan-15 15:33N 57°09' E 011°39'6112.3
2017-Jan-15 10:33N 56°13' E 012°24'1312.7
2017-Jan-15 09:34N 56°04' E 012°39'1212.4
2017-Jan-15 08:33N 55°52' E 012°44'1212.3
2017-Jan-15 07:33N 55°39' E 012°42'1111.0
2017-Jan-15 06:33N 55°28' E 012°43'1010.3
2017-Jan-15 05:33N 55°18' E 012°42'1111.5
2017-Jan-15 04:33N 55°15' E 013°02'2411.9
2017-Jan-15 02:33N 55°15' E 013°44'1211.9
2017-Jan-15 01:33N 55°14' E 014°05'1010.5
2017-Jan-15 00:33N 55°18' E 014°22'1211.6
2017-Jan-14 23:33N 55°27' E 014°35'1211.6
2017-Jan-14 22:33N 55°31' E 014°54'1312.8
2017-Jan-14 21:32N 55°36' E 015°15'  
2017-Jan-11 16:25N 53°43' E 014°27'910.2
2017-Jan-11 15:33N 53°36' E 014°35'9 8.8
2017-Jan-11 14:33N 53°27' E 014°36'2 1.8
2017-Jan-11 13:33N 53°25' E 014°34'0 0.0
2017-Jan-11 12:33N 53°25' E 014°34'0 0.0
2017-Jan-11 11:33N 53°25' E 014°34'0 0.0
2017-Jan-11 10:33N 53°25' E 014°34'0 0.0
2017-Jan-11 09:33N 53°25' E 014°34'0 0.0
2017-Jan-11 08:33N 53°25' E 014°34'0 0.0
2017-Jan-11 07:33N 53°25' E 014°34'0 0.0
2017-Jan-11 06:33N 53°25' E 014°34'0 0.0
2017-Jan-11 05:33N 53°25' E 014°34'0 0.0
2017-Jan-11 04:33N 53°25' E 014°34'0 0.0
2017-Jan-11 03:33N 53°25' E 014°34'0 0.0
2017-Jan-11 02:33N 53°25' E 014°34'0 0.0
2017-Jan-11 01:33N 53°25' E 014°34'0 0.0
2017-Jan-11 00:33N 53°25' E 014°34'0 0.0
2017-Jan-10 23:33N 53°25' E 014°34'0 0.0
2017-Jan-10 22:33N 53°25' E 014°34'0 0.0
2017-Jan-10 21:33N 53°25' E 014°34'0 0.0
2017-Jan-10 20:33N 53°25' E 014°34'0 0.0
2017-Jan-10 19:33N 53°25' E 014°34'0 0.0
2017-Jan-10 18:33N 53°25' E 014°34'0 0.0
2017-Jan-10 17:33N 53°25' E 014°34'0 0.0
2017-Jan-10 16:33N 53°25' E 014°34'0 0.0
2017-Jan-10 15:33N 53°25' E 014°34'0 0.0
2017-Jan-10 14:33N 53°25' E 014°34'0 0.0
2017-Jan-10 13:33N 53°25' E 014°34'0 0.0
2017-Jan-10 12:33N 53°25' E 014°34'0 0.0
2017-Jan-10 11:33N 53°25' E 014°34'0 0.0
2017-Jan-10 10:33N 53°25' E 014°34'0 0.0
2017-Jan-10 09:33N 53°25' E 014°34'0 0.0
2017-Jan-10 08:30N 53°25' E 014°34'0 0.0
2017-Jan-10 07:33N 53°25' E 014°34'0 0.0
2017-Jan-10 06:33N 53°25' E 014°34'0 0.0
2017-Jan-10 05:33N 53°25' E 014°34'0 0.0
2017-Jan-10 04:33N 53°25' E 014°34'0 0.0
2017-Jan-10 03:33N 53°25' E 014°34'0 0.0
2017-Jan-10 02:33N 53°25' E 014°34'0 0.0
2017-Jan-10 01:33N 53°25' E 014°34'0 0.0
2017-Jan-10 00:33N 53°25' E 014°34'0 0.0
2017-Jan-09 23:33N 53°25' E 014°34'0 0.0
2017-Jan-09 22:27N 53°25' E 014°34'0 0.0
2017-Jan-09 21:33N 53°25' E 014°34'0 0.0
2017-Jan-09 20:33N 53°25' E 014°34'0 0.0
2017-Jan-09 19:30N 53°25' E 014°34'0 0.0
2017-Jan-09 18:33N 53°25' E 014°34'0 0.0
2017-Jan-09 17:33N 53°25' E 014°34'0 0.0
2017-Jan-09 16:33N 53°25' E 014°34'0 0.0
2017-Jan-09 15:33N 53°25' E 014°34'0 0.0
2017-Jan-09 14:33N 53°25' E 014°34'0 0.0
2017-Jan-09 13:33N 53°25' E 014°34'0 0.0
2017-Jan-09 12:33N 53°25' E 014°34'0 0.0
2017-Jan-09 11:33N 53°25' E 014°34'0 0.0
2017-Jan-09 10:33N 53°25' E 014°34'0 0.0
2017-Jan-09 09:33N 53°25' E 014°34'0 0.0
2017-Jan-09 08:33N 53°25' E 014°34'0 0.0
2017-Jan-09 07:33N 53°25' E 014°34'0 0.0
2017-Jan-09 06:33N 53°25' E 014°34'0 0.0
2017-Jan-09 05:33N 53°25' E 014°34'0 0.0
2017-Jan-09 04:33N 53°25' E 014°34'0 0.0
2017-Jan-09 03:33N 53°25' E 014°34'0 0.0
2017-Jan-09 02:33N 53°25' E 014°34'0 0.0
2017-Jan-09 01:33N 53°25' E 014°34'0 0.0
2017-Jan-09 00:33N 53°25' E 014°34'0 0.0
2017-Jan-08 23:33N 53°25' E 014°34'0 0.0
2017-Jan-08 22:33N 53°25' E 014°34'0 0.0
2017-Jan-08 21:33N 53°25' E 014°34'0 0.0
2017-Jan-08 20:33N 53°25' E 014°34'0 0.0
2017-Jan-08 19:33N 53°25' E 014°34'0 0.0
2017-Jan-08 18:33N 53°25' E 014°34'0 0.0
2017-Jan-08 17:30N 53°25' E 014°34'0 0.0
2017-Jan-08 16:33N 53°25' E 014°34'0 0.0
2017-Jan-08 15:33N 53°25' E 014°34'0 0.0
2017-Jan-08 14:33N 53°25' E 014°34'0 0.0
2017-Jan-08 13:33N 53°25' E 014°34'0 0.0
2017-Jan-08 12:33N 53°25' E 014°34'0 0.0
2017-Jan-08 11:33N 53°25' E 014°34'0 0.0
2017-Jan-08 10:33N 53°25' E 014°34'0 0.0
2017-Jan-08 09:33N 53°25' E 014°34'0 0.0
2017-Jan-08 08:33N 53°25' E 014°34'0 0.0
2017-Jan-08 07:33N 53°25' E 014°34'0 0.0
2017-Jan-08 06:33N 53°25' E 014°34'0 0.0
2017-Jan-08 05:33N 53°25' E 014°34'0 0.0
2017-Jan-08 04:33N 53°25' E 014°34'0 0.0
2017-Jan-08 03:33N 53°25' E 014°34'0 0.0
2017-Jan-08 02:33N 53°25' E 014°34'0 0.0
2017-Jan-08 01:33N 53°25' E 014°34'0 0.0
2017-Jan-08 00:33N 53°25' E 014°34'0 0.0
2017-Jan-07 23:33N 53°25' E 014°34'0 0.0
2017-Jan-07 22:33N 53°25' E 014°34'0 0.0
2017-Jan-07 21:33N 53°25' E 014°34'0 0.0
2017-Jan-07 20:33N 53°25' E 014°34'0 0.0
2017-Jan-07 19:33N 53°25' E 014°34'0 0.0
2017-Jan-07 18:33N 53°25' E 014°34'0 0.0
2017-Jan-07 17:33N 53°25' E 014°34'0 0.0
2017-Jan-07 16:33N 53°25' E 014°34'0 0.0
2017-Jan-07 15:30N 53°25' E 014°34'0 0.0
2017-Jan-07 14:33N 53°25' E 014°34'0 0.0
2017-Jan-07 13:33N 53°25' E 014°34'  

Dump ship's entire track history